Terminal Aerodrome Forecast
Issued by NWS

Current Version | Previous Version | Graphics & Text | Print | Product List | Glossary On
Versions: 1 2 3 4 5 6 7 8 9 10 11 12 13 14 15 16 17
000
FTUS41 KPBZ 241727
TAFHLG
TAF
KHLG 241727Z 2418/2518 23016G24KT P6SM SCT080
     FM242300 22009KT P6SM SCT080
     FM251500 20007KT P6SM BKN040=

USA.gov is the U.S. government's official web portal to all federal, state and local government web resources and services.